Terminal Aerodrome Forecast
Issued by NWS

Home | Current Version | Previous Version | Text Only | Print | Product List | Glossary On
Versions: 1 2 3 4 5 6 7 8 9 10 11 12 13 14 15 16 17 18 19 20 21
000
FTUS41 KOKX 220200 AAA
TAFHPN
TAF AMD
KHPN 220227Z 2202/2224 36007KT P6SM SCT035 BKN080
     FM220700 01010KT 6SM -RA BR BKN015
     FM221400 35014G22KT 4SM BR VCSH BKN010
      AMD NOT SKED=

USA.gov is the U.S. government's official web portal to all federal, state and local government web resources and services.